Norton, KS (67654)

9:41 AM CDT on August 25, 2016 (GMT -0500)
by sebelius lake | | Change Station

Elev 2418 ft 39.83 °N, 99.97 °W | Updated 21 seconds ago

Partly Cloudy
Partly Cloudy
62.6 °F
Feels Like 62.6 °F
N
0.0
Wind Variable Wind from NNE
Gusts 0.0 mph

Today
High -- | Low -- °F
--% Chance of Precip.
Yesterday
High -- | Low -- °F
Precip. -- in
Pressure 30.16 in
Visibility 10.0 miles
Clouds Few 11000 ft
Dew Point 57 °F
Humidity 82%
Rainfall 0.00 in
Snow Depth Not available.
7:01 AM 8:20 PM
Last Quarter, 45% visible
METAR KHLC 251353Z AUTO 00000KT 10SM FEW110 16/14 A3019 RMK AO2 SLP213 T01610144 TSNO
Pressure 30.16 in
Visibility 10.0 miles
Clouds Few 11000 ft
Dew Point 57 °F
Humidity 82%
Rainfall 0.00 in
Snow Depth Not available.
7:01 AM 8:20 PM
Last Quarter, 45% visible
METAR KHLC 251353Z AUTO 00000KT 10SM FEW110 16/14 A3019 RMK AO2 SLP213 T01610144 TSNO

10-Day Weather Forecast

Almanac

Astronomy

Aug. 25, 2016 Rise Set
Actual Time
Civil Twilight
Nautical Twilight
Astronomical Twilight
Moon
Length of Visible Light
Length of Day
Tomorrow will be .
, % of the Moon is Illuminated

Today's Extremes

State Highs State Lows

Community

WunderPhotos

Upload Photos

1,934,850 photos uploaded!

WunderBlog® & News

Nearby

Air Quality

  Air Quality AQ Index Pollutant
Not available.

Snow Depth

Station Depth Elevation

Earthquake Activity

City Distance Mag. Time & Date
Minimum magnitude displayed is 2.5.

Coastal Water Temperatures

Place Temperature

Stations

Nearby Weather Stations

Station Location Temp. Windchill Dew Point Humidity Wind Precip. Elev Updated Type
                   

Watches & Warnings

There are currently no watches in effect.